Time;durP1;ratioP1;P1;durP2;ratioP2;P2;SDS_P1;SDS_P2;PMS_P1;PMS_P2;Temp;Humidity;BMP_temperature;BMP_pressure;BME280_temperature;BME280_humidity;BME280_pressure;Samples;Min_cycle;Max_cycle;Signal;HPM_P1;HPM_P2
2021/10/30 04:00:26;;;;;;;22.93;20.10;;;5.90;99.90;;;;;;6161622;22;20431;31
2021/10/30 04:02:54;;;;;;;21.93;19.03;;;5.90;99.90;;;;;;4955547;29;20470;-71
2021/10/30 04:05:20;;;;;;;24.20;19.53;;;6.00;99.90;;;;;;4956836;29;20452;-70
2021/10/30 04:07:47;;;;;;;20.90;18.80;;;5.90;99.90;;;;;;4956634;29;20452;-70
2021/10/30 04:10:14;;;;;;;23.33;20.27;;;6.00;99.90;;;;;;4956273;29;20964;-70
2021/10/30 04:12:41;;;;;;;19.37;17.40;;;6.00;99.90;;;;;;4956289;29;20479;-70
2021/10/30 04:15:09;;;;;;;19.57;17.57;;;6.00;99.90;;;;;;4956407;29;20510;-71
2021/10/30 04:17:36;;;;;;;20.03;17.93;;;6.10;99.90;;;;;;4956587;29;20938;-70
2021/10/30 04:20:05;;;;;;;18.73;16.90;;;6.00;99.90;;;;;;4956958;29;20475;-70
2021/10/30 04:22:32;;;;;;;20.80;18.33;;;6.00;99.90;;;;;;4956249;29;20481;-71
2021/10/30 04:24:59;;;;;;;19.80;17.87;;;6.00;99.90;;;;;;4956541;29;20923;-70
2021/10/30 04:27:26;;;;;;;18.87;16.93;;;6.00;99.90;;;;;;4956349;29;20463;-70
2021/10/30 04:29:52;;;;;;;18.73;16.93;;;6.00;99.90;;;;;;4956472;29;20462;-71
2021/10/30 04:32:19;;;;;;;19.03;17.00;;;6.00;99.90;;;;;;4956227;29;20475;-70
2021/10/30 04:34:48;;;;;;;19.03;16.87;;;6.00;99.90;;;;;;4956125;29;20592;-70
2021/10/30 04:37:16;;;;;;;18.10;16.20;;;6.00;99.90;;;;;;4956242;29;20455;-71
2021/10/30 04:39:44;;;;;;;17.87;16.03;;;6.00;99.90;;;;;;4956238;29;20459;-71
2021/10/30 04:42:11;;;;;;;17.07;15.27;;;5.90;99.90;;;;;;4956113;29;20475;-71
2021/10/30 04:44:38;;;;;;;17.47;15.83;;;5.90;99.90;;;;;;4956113;29;20467;-70
2021/10/30 04:47:05;;;;;;;17.87;16.17;;;5.90;99.90;;;;;;4956071;29;20463;-71
2021/10/30 04:49:33;;;;;;;17.23;15.47;;;5.90;99.90;;;;;;4956088;29;20455;-70
2021/10/30 04:51:59;;;;;;;15.00;13.60;;;5.80;99.90;;;;;;4956331;29;20483;-71
2021/10/30 04:54:28;;;;;;;17.23;15.50;;;5.80;99.90;;;;;;4955427;28;20455;-70
2021/10/30 04:56:54;;;;;;;16.27;14.57;;;5.70;99.90;;;;;;4955961;29;20467;-70
2021/10/30 04:59:21;;;;;;;18.07;16.00;;;5.60;99.90;;;;;;4955587;29;20939;-71
2021/10/30 05:01:48;;;;;;;17.90;16.17;;;5.50;99.90;;;;;;4955250;29;21049;-70
2021/10/30 05:04:14;;;;;;;18.40;16.50;;;5.50;99.90;;;;;;4955797;29;20459;-70
2021/10/30 05:06:41;;;;;;;15.87;14.27;;;5.50;99.90;;;;;;4955580;29;20456;-70
2021/10/30 05:09:08;;;;;;;17.00;14.90;;;5.50;99.90;;;;;;4955509;29;20455;-70
2021/10/30 05:11:36;;;;;;;15.60;13.90;;;5.40;99.90;;;;;;4955250;29;20475;-71
2021/10/30 05:14:02;;;;;;;17.20;14.53;;;5.40;99.90;;;;;;4955542;29;20514;-70
2021/10/30 05:16:29;;;;;;;16.33;14.67;;;5.40;99.90;;;;;;4955625;29;20459;-71
2021/10/30 05:18:56;;;;;;;15.97;14.27;;;5.50;99.90;;;;;;4955690;29;20443;-71
2021/10/30 05:21:23;;;;;;;16.63;14.83;;;5.50;99.90;;;;;;4955430;29;20483;-71
2021/10/30 05:23:50;;;;;;;17.50;15.60;;;5.40;99.90;;;;;;4955657;29;20462;-71
2021/10/30 05:26:16;;;;;;;21.13;15.63;;;5.40;99.90;;;;;;4955387;29;20459;-69
2021/10/30 05:28:44;;;;;;;17.23;15.53;;;5.50;99.90;;;;;;4955635;29;20455;-69
2021/10/30 05:31:12;;;;;;;17.80;15.90;;;5.50;99.90;;;;;;4955319;29;20472;-70
2021/10/30 05:33:39;;;;;;;16.13;14.63;;;5.50;99.90;;;;;;4956378;29;20444;-67
2021/10/30 05:36:09;;;;;;;16.53;14.90;;;5.60;99.90;;;;;;4959719;29;20452;-70
2021/10/30 05:38:38;;;;;;;18.90;16.20;;;5.60;99.90;;;;;;4955724;29;20455;-66
2021/10/30 05:41:05;;;;;;;19.00;17.00;;;5.60;99.90;;;;;;4955418;29;20505;-68
2021/10/30 05:43:32;;;;;;;19.93;16.90;;;5.60;99.90;;;;;;4955519;29;20462;-67
2021/10/30 05:46:00;;;;;;;18.03;16.13;;;5.60;99.90;;;;;;4955519;29;20460;-72
2021/10/30 05:48:28;;;;;;;18.50;15.63;;;5.60;99.90;;;;;;4956015;29;20463;-67
2021/10/30 05:50:55;;;;;;;18.30;15.17;;;5.60;99.90;;;;;;4955051;29;20811;-69
2021/10/30 05:53:22;;;;;;;19.83;16.53;;;5.60;99.90;;;;;;4955344;29;20481;-66
2021/10/30 05:55:48;;;;;;;17.57;15.67;;;5.50;99.90;;;;;;4955323;29;20463;-66
2021/10/30 05:58:15;;;;;;;18.77;16.60;;;5.40;99.90;;;;;;4955551;29;20462;-67
2021/10/30 06:00:42;;;;;;;19.30;17.20;;;5.40;99.90;;;;;;4955145;29;20491;-71
2021/10/30 06:03:10;;;;;;;18.83;16.83;;;5.40;99.90;;;;;;4955350;29;20515;-69
2021/10/30 06:05:36;;;;;;;17.80;15.90;;;5.40;99.90;;;;;;4955477;28;20459;-67
2021/10/30 06:08:04;;;;;;;19.20;17.20;;;5.40;99.90;;;;;;4958886;29;20455;-69
2021/10/30 06:10:31;;;;;;;16.37;14.70;;;5.40;99.90;;;;;;4958763;29;20597;-69
2021/10/30 06:12:58;;;;;;;20.37;16.73;;;5.40;99.90;;;;;;4958633;29;20498;-68
2021/10/30 06:15:25;;;;;;;17.30;15.50;;;5.40;99.90;;;;;;4958600;29;20828;-66
2021/10/30 06:17:51;;;;;;;17.63;15.70;;;5.40;99.90;;;;;;4958537;29;20455;-69
2021/10/30 06:20:19;;;;;;;17.23;15.53;;;5.50;99.90;;;;;;4958320;29;20938;-69
2021/10/30 06:22:46;;;;;;;19.07;15.37;;;5.50;99.90;;;;;;4958663;29;20466;-69
2021/10/30 06:25:15;;;;;;;16.57;14.90;;;5.60;99.90;;;;;;4959649;29;20451;-70
2021/10/30 06:27:42;;;;;;;17.10;15.30;;;5.60;99.90;;;;;;4959372;29;20455;-69
2021/10/30 06:30:11;;;;;;;15.37;13.50;;;5.70;99.90;;;;;;4958351;29;21072;-69
2021/10/30 06:32:38;;;;;;;16.10;14.50;;;5.70;99.90;;;;;;4958499;29;20450;-70
2021/10/30 06:35:06;;;;;;;17.53;15.70;;;5.90;99.90;;;;;;4958076;29;20825;-69
2021/10/30 06:37:34;;;;;;;17.17;14.80;;;5.90;99.90;;;;;;4958252;29;20459;-69
2021/10/30 06:40:01;;;;;;;19.53;14.77;;;5.90;99.90;;;;;;4958141;29;20536;-70
2021/10/30 06:42:28;;;;;;;18.30;14.50;;;6.00;99.90;;;;;;4957992;29;20886;-69
2021/10/30 06:44:54;;;;;;;14.93;13.53;;;6.10;99.90;;;;;;4957924;29;20491;-73
2021/10/30 06:47:21;;;;;;;15.83;14.13;;;6.10;99.90;;;;;;4957941;29;20464;-73
2021/10/30 06:49:48;;;;;;;13.57;12.27;;;6.20;99.90;;;;;;4959330;29;20452;-72
2021/10/30 06:52:15;;;;;;;13.87;12.57;;;6.30;99.90;;;;;;4958947;29;20475;-69
2021/10/30 06:54:43;;;;;;;12.60;11.50;;;6.30;99.90;;;;;;4957816;29;20454;-70
2021/10/30 06:57:10;;;;;;;12.77;11.67;;;6.40;99.90;;;;;;4957689;29;20828;-70
2021/10/30 06:59:37;;;;;;;12.33;11.10;;;6.50;99.90;;;;;;4957661;29;20447;-69
2021/10/30 07:02:04;;;;;;;13.30;12.00;;;6.60;99.90;;;;;;4957335;29;20983;-70
2021/10/30 07:04:32;;;;;;;13.83;12.40;;;6.70;99.90;;;;;;4957430;29;20948;-70
2021/10/30 07:06:59;;;;;;;12.17;10.97;;;6.80;99.90;;;;;;4957668;29;20435;-69
2021/10/30 07:09:26;;;;;;;17.97;10.77;;;7.00;99.90;;;;;;4957619;29;20463;-71
2021/10/30 07:11:54;;;;;;;12.40;11.20;;;7.30;99.90;;;;;;4957641;29;20831;-71
2021/10/30 07:14:21;;;;;;;10.27;9.27;;;7.50;99.90;;;;;;4957901;29;20459;-70
2021/10/30 07:16:49;;;;;;;10.80;9.67;;;7.70;99.90;;;;;;4957361;29;20826;-68
2021/10/30 07:19:16;;;;;;;10.47;9.57;;;8.40;99.90;;;;;;4956766;28;20482;-68
2021/10/30 07:21:42;;;;;;;9.90;9.03;;;9.50;99.90;;;;;;4957192;29;20483;-71
2021/10/30 07:24:09;;;;;;;9.43;8.63;;;10.40;99.90;;;;;;4957672;29;20455;-70
2021/10/30 07:26:37;;;;;;;9.93;8.93;;;11.00;99.90;;;;;;4957169;29;20466;-69
2021/10/30 07:29:05;;;;;;;8.60;7.90;;;11.80;99.90;;;;;;4956198;29;20526;-67
2021/10/30 07:31:32;;;;;;;10.30;9.10;;;12.60;99.90;;;;;;4957104;29;20479;-70
2021/10/30 07:33:58;;;;;;;9.03;8.23;;;13.20;99.90;;;;;;4960012;29;20455;-70
2021/10/30 07:36:25;;;;;;;9.63;8.73;;;13.80;99.90;;;;;;4959924;29;20805;-70
2021/10/30 07:38:52;;;;;;;8.63;7.90;;;14.00;99.90;;;;;;4957174;29;20459;-71
2021/10/30 07:41:19;;;;;;;11.40;8.90;;;14.30;99.90;;;;;;4956806;29;20507;-71
2021/10/30 07:43:46;;;;;;;8.80;8.10;;;14.40;99.90;;;;;;4956963;29;20498;-71
2021/10/30 07:46:14;;;;;;;8.93;8.13;;;14.20;99.90;;;;;;4956800;29;20456;-70
2021/10/30 07:48:41;;;;;;;10.40;9.50;;;14.30;99.90;;;;;;4958033;29;20466;-71
2021/10/30 07:51:08;;;;;;;10.13;9.23;;;13.90;99.90;;;;;;4958188;29;20978;-69
2021/10/30 07:53:34;;;;;;;10.10;9.10;;;13.80;99.90;;;;;;4957988;29;20440;-71
2021/10/30 07:56:01;;;;;;;10.40;9.43;;;13.70;99.90;;;;;;4958354;29;20482;-69
2021/10/30 07:58:28;;;;;;;11.67;9.40;;;13.20;99.90;;;;;;4958692;29;20463;-69
2021/10/30 08:00:54;;;;;;;10.07;9.13;;;12.90;99.90;;;;;;4958592;29;20839;-69
2021/10/30 08:03:23;;;;;;;10.13;9.30;;;12.70;99.90;;;;;;4959169;29;20455;-70
2021/10/30 08:05:49;;;;;;;9.70;8.87;;;12.60;99.90;;;;;;4958560;29;20460;-68
2021/10/30 08:08:16;;;;;;;9.87;9.03;;;12.40;99.90;;;;;;4958650;29;20455;-69
2021/10/30 08:10:43;;;;;;;10.10;9.10;;;12.40;99.90;;;;;;4957438;29;20821;-70
2021/10/30 08:13:11;;;;;;;10.03;9.13;;;12.40;99.90;;;;;;4956586;29;20823;-69
2021/10/30 08:15:38;;;;;;;9.70;8.77;;;12.30;99.90;;;;;;4956701;29;21072;-69
2021/10/30 08:18:05;;;;;;;13.43;12.23;;;12.30;99.90;;;;;;4956910;29;20467;-69
2021/10/30 08:20:34;;;;;;;10.60;9.60;;;12.30;99.90;;;;;;4956820;29;20502;-70
2021/10/30 08:23:01;;;;;;;9.80;8.90;;;12.80;99.90;;;;;;4956694;29;20506;-69
2021/10/30 08:25:28;;;;;;;9.87;8.97;;;13.50;99.90;;;;;;4956476;29;20466;-70
2021/10/30 08:27:56;;;;;;;8.83;8.10;;;14.10;99.90;;;;;;4956449;29;20494;-70
2021/10/30 08:30:22;;;;;;;9.60;8.83;;;14.60;99.90;;;;;;4955632;28;20822;-70
2021/10/30 08:32:49;;;;;;;10.00;9.10;;;14.90;99.90;;;;;;4956097;29;20954;-70
2021/10/30 08:35:16;;;;;;;9.90;9.00;;;15.00;99.90;;;;;;4956357;29;20467;-69
2021/10/30 08:37:44;;;;;;;10.27;9.27;;;14.70;99.90;;;;;;4955980;29;20451;-69
2021/10/30 08:40:13;;;;;;;10.20;9.20;;;14.50;99.90;;;;;;4956062;29;20486;-70
2021/10/30 08:42:45;;;;;;;15.53;10.47;;;14.40;99.90;;;;;;4956108;29;20526;-71
2021/10/30 08:45:12;;;;;;;9.73;8.83;;;13.90;99.90;;;;;;4955973;29;20919;-70
2021/10/30 08:47:39;;;;;;;11.57;10.47;;;13.70;99.90;;;;;;4956041;29;20455;-69
2021/10/30 08:50:07;;;;;;;11.37;10.20;;;13.20;99.90;;;;;;4956153;29;20455;-70
2021/10/30 08:52:34;;;;;;;11.50;10.23;;;13.00;99.90;;;;;;4956118;29;20475;-72
2021/10/30 08:55:04;;;;;;;11.93;10.83;;;13.00;99.90;;;;;;4956059;29;20463;-71
2021/10/30 08:57:31;;;;;;;12.27;11.00;;;12.90;99.90;;;;;;4957166;29;20452;-71
2021/10/30 09:00:16;;;;;;;15.70;11.07;;;13.00;99.90;;;;;;4955949;29;20460;-72
2021/10/30 09:02:43;;;;;;;12.20;11.03;;;13.00;99.90;;;;;;4956307;29;20470;-72
2021/10/30 09:05:12;;;;;;;11.63;10.43;;;13.00;99.90;;;;;;4961217;29;20471;-72
2021/10/30 09:07:39;;;;;;;11.70;10.60;;;13.00;99.90;;;;;;4957236;29;20471;-71
2021/10/30 09:10:12;;;;;;;11.50;10.40;;;12.90;99.90;;;;;;4957257;29;20465;-71
2021/10/30 09:12:39;;;;;;;11.47;10.47;;;13.00;99.90;;;;;;4957309;29;20780;-73
2021/10/30 09:15:06;;;;;;;11.90;10.77;;;12.70;99.90;;;;;;4956214;29;20458;-74
2021/10/30 09:17:33;;;;;;;12.07;10.90;;;12.70;99.90;;;;;;4955573;29;20824;-74
2021/10/30 09:20:00;;;;;;;10.90;9.80;;;12.80;99.90;;;;;;4955633;29;20494;-73
2021/10/30 09:22:27;;;;;;;14.47;11.80;;;12.60;99.90;;;;;;4955148;29;20479;-73
2021/10/30 09:25:03;;;;;;;12.50;11.30;;;12.40;99.90;;;;;;4955450;29;20455;-73
2021/10/30 09:27:53;;;;;;;13.60;10.70;;;12.40;99.90;;;;;;4955672;29;20447;-73
2021/10/30 09:30:23;;;;;;;11.90;10.80;;;12.40;99.90;;;;;;4955429;29;20451;-73
2021/10/30 09:32:52;;;;;;;12.23;11.03;;;12.20;99.90;;;;;;4955116;29;20923;-73
2021/10/30 09:35:22;;;;;;;12.47;11.17;;;12.00;99.90;;;;;;4955488;29;20464;-72
2021/10/30 09:37:50;;;;;;;12.27;11.00;;;11.90;99.90;;;;;;4955394;29;20443;-73
2021/10/30 09:40:25;;;;;;;13.30;12.10;;;11.70;99.90;;;;;;4955375;28;20466;-72
2021/10/30 09:43:11;;;;;;;14.17;12.77;;;11.60;99.90;;;;;;4958921;29;20969;-72
2021/10/30 09:45:46;;;;;;;13.10;11.80;;;11.60;99.90;;;;;;4959154;29;20444;-72
2021/10/30 09:48:15;;;;;;;13.90;12.20;;;11.50;99.90;;;;;;4959350;29;20454;-72
2021/10/30 09:50:42;;;;;;;11.80;10.70;;;11.50;99.90;;;;;;4959404;29;20574;-72
2021/10/30 09:53:33;;;;;;;13.40;12.13;;;11.40;99.90;;;;;;4959311;29;20455;-72
2021/10/30 09:56:01;;;;;;;13.00;11.80;;;11.40;99.90;;;;;;4958921;29;20444;-72
2021/10/30 09:58:38;;;;;;;12.47;11.27;;;11.40;99.90;;;;;;4958818;29;20962;-72
2021/10/30 10:01:11;;;;;;;12.70;11.50;;;11.50;99.90;;;;;;4958701;29;20487;-72
2021/10/30 10:03:39;;;;;;;11.93;10.73;;;11.50;99.90;;;;;;4958940;29;20451;-71
2021/10/30 10:06:08;;;;;;;13.17;11.87;;;11.40;99.90;;;;;;4958882;29;20459;-72
2021/10/30 10:08:38;;;;;;;12.03;10.93;;;11.40;99.90;;;;;;4974518;29;20458;-72
2021/10/30 10:11:08;;;;;;;14.13;11.77;;;11.50;99.90;;;;;;4960330;29;20503;-72
2021/10/30 10:13:37;;;;;;;11.40;10.30;;;11.50;99.90;;;;;;4958677;29;20474;-72
2021/10/30 10:16:04;;;;;;;12.10;11.00;;;11.50;99.90;;;;;;4958734;29;20451;-72
2021/10/30 10:18:31;;;;;;;12.90;11.57;;;11.60;99.90;;;;;;4958532;29;20451;-72
2021/10/30 10:20:58;;;;;;;12.53;11.33;;;11.60;99.90;;;;;;4958656;29;20511;-72
2021/10/30 10:23:25;;;;;;;12.30;11.20;;;11.70;99.90;;;;;;4958406;29;20479;-72
2021/10/30 10:25:55;;;;;;;13.40;12.13;;;11.60;99.90;;;;;;4958221;29;20814;-72
2021/10/30 10:28:25;;;;;;;13.43;12.10;;;11.60;99.90;;;;;;4958343;29;20455;-72
2021/10/30 10:31:00;;;;;;;14.43;13.07;;;11.50;99.90;;;;;;4958123;29;20486;-72
2021/10/30 10:33:27;;;;;;;14.50;13.00;;;11.50;99.90;;;;;;4958831;29;20447;-71
2021/10/30 10:36:23;;;;;;;14.30;12.90;;;11.40;99.90;;;;;;4958138;29;20973;-71
2021/10/30 10:39:20;;;;;;;12.50;11.33;;;11.50;99.90;;;;;;4957896;29;20895;-71
2021/10/30 10:42:00;;;;;;;13.13;11.87;;;11.50;99.90;;;;;;4957891;29;20506;-72
2021/10/30 10:45:02;;;;;;;14.40;12.90;;;11.50;99.90;;;;;;4958374;29;20439;-71
2021/10/30 10:47:58;;;;;;;13.30;11.97;;;11.40;99.90;;;;;;4957878;29;20529;-71
2021/10/30 10:50:37;;;;;;;15.73;12.97;;;11.40;99.90;;;;;;4957797;29;20467;-71
2021/10/30 10:53:24;;;;;;;13.73;12.30;;;11.50;99.90;;;;;;4957189;28;20531;-71
2021/10/30 10:56:14;;;;;;;14.90;13.03;;;11.50;99.90;;;;;;4957897;29;20866;-71
2021/10/30 10:59:05;;;;;;;14.40;13.10;;;11.40;99.90;;;;;;4957814;29;20456;-72
2021/10/30 11:01:34;;;;;;;14.67;13.37;;;11.40;99.90;;;;;;4952723;29;20586;-72
2021/10/30 11:04:13;;;;;;;15.07;13.67;;;11.30;99.90;;;;;;4957638;29;20464;-72
2021/10/30 11:06:45;;;;;;;15.17;13.57;;;11.20;99.90;;;;;;4957380;29;20490;-72
2021/10/30 11:09:15;;;;;;;13.63;12.43;;;11.20;99.90;;;;;;4957710;29;20479;-72
2021/10/30 11:11:42;;;;;;;15.73;14.07;;;11.00;99.90;;;;;;4957528;29;20592;-72
2021/10/30 11:14:11;;;;;;;17.13;13.40;;;10.90;99.90;;;;;;4957615;29;20466;-72
2021/10/30 11:16:42;;;;;;;14.93;13.40;;;10.90;99.90;;;;;;4957305;29;20456;-72
2021/10/30 11:19:32;;;;;;;13.83;12.53;;;10.80;99.90;;;;;;4957553;29;20447;-72
2021/10/30 11:22:12;;;;;;;17.23;13.40;;;10.90;99.90;;;;;;4957353;29;20487;-72
2021/10/30 11:24:50;;;;;;;14.77;13.17;;;10.90;99.90;;;;;;4957358;29;20444;-72
2021/10/30 11:27:17;;;;;;;17.50;13.47;;;10.90;99.90;;;;;;4956960;29;20457;-72
2021/10/30 11:29:49;;;;;;;14.77;13.37;;;10.90;99.90;;;;;;4957306;29;20455;-72
2021/10/30 11:32:16;;;;;;;14.30;12.90;;;10.90;99.90;;;;;;4957024;29;20471;-72
2021/10/30 11:34:48;;;;;;;16.70;13.07;;;10.90;99.90;;;;;;4956806;29;20959;-72
2021/10/30 11:37:16;;;;;;;15.70;14.10;;;10.90;99.90;;;;;;4957011;29;20451;-72
2021/10/30 11:39:47;;;;;;;16.40;14.70;;;10.90;99.90;;;;;;4957206;29;20471;-72
2021/10/30 11:42:14;;;;;;;14.80;13.30;;;10.90;99.90;;;;;;4957022;29;20522;-72
2021/10/30 11:44:53;;;;;;;15.57;14.07;;;10.90;99.90;;;;;;4957160;29;20482;-72
2021/10/30 11:47:30;;;;;;;14.50;12.40;;;10.90;99.90;;;;;;4957735;29;20459;-71
2021/10/30 11:49:57;;;;;;;15.60;13.60;;;11.00;99.90;;;;;;4956823;29;20459;-72
2021/10/30 11:52:28;;;;;;;16.13;14.50;;;11.00;99.90;;;;;;4956411;29;20477;-73
2021/10/30 11:54:59;;;;;;;15.60;13.93;;;11.10;99.90;;;;;;4956843;29;20443;-72
2021/10/30 11:57:25;;;;;;;14.37;12.70;;;11.20;99.90;;;;;;4956736;29;20466;-73
2021/10/30 11:59:58;;;;;;;16.50;12.97;;;11.20;99.90;;;;;;4956783;29;20515;-73
2021/10/30 12:02:25;;;;;;;15.30;13.70;;;11.20;99.90;;;;;;4956454;29;20484;-72
2021/10/30 12:04:51;;;;;;;14.90;13.37;;;11.20;99.90;;;;;;4956522;28;20459;-72
2021/10/30 12:07:19;;;;;;;18.90;14.87;;;11.20;99.90;;;;;;4960095;29;20458;-72
2021/10/30 12:09:48;;;;;;;16.60;15.00;;;11.20;99.90;;;;;;4967228;29;20455;-72
2021/10/30 12:12:23;;;;;;;19.07;17.00;;;11.00;99.90;;;;;;4956822;29;20476;-72
2021/10/30 12:14:52;;;;;;;17.10;14.80;;;11.00;99.90;;;;;;4956570;29;20502;-72
2021/10/30 12:17:21;;;;;;;19.07;15.50;;;10.80;99.90;;;;;;4956360;29;20463;-72
2021/10/30 12:19:49;;;;;;;17.63;15.77;;;10.70;99.90;;;;;;4956754;29;20459;-72
2021/10/30 12:22:21;;;;;;;16.03;14.53;;;10.50;99.90;;;;;;4962652;29;20495;-72
2021/10/30 12:24:58;;;;;;;17.40;15.70;;;10.50;99.90;;;;;;4956463;29;20471;-72
2021/10/30 12:27:25;;;;;;;17.97;16.23;;;10.30;99.90;;;;;;4956451;29;20443;-72
2021/10/30 12:29:52;;;;;;;18.60;16.73;;;10.20;99.90;;;;;;4956353;29;20824;-72
2021/10/30 12:32:20;;;;;;;18.47;16.77;;;10.10;99.90;;;;;;4955865;29;20471;-72
2021/10/30 12:34:55;;;;;;;20.13;16.90;;;10.10;99.90;;;;;;4955858;29;20456;-72
2021/10/30 12:37:26;;;;;;;17.73;16.13;;;10.10;99.90;;;;;;4955932;29;20444;-72
2021/10/30 12:39:58;;;;;;;18.63;16.77;;;10.10;99.90;;;;;;4956006;29;20482;-72
2021/10/30 12:42:24;;;;;;;18.13;16.33;;;10.20;99.90;;;;;;4956076;29;20781;-73
2021/10/30 12:44:53;;;;;;;19.67;17.57;;;10.20;99.90;;;;;;4955979;29;20466;-72
2021/10/30 12:47:22;;;;;;;18.33;16.60;;;10.30;99.90;;;;;;4956064;29;20506;-72
2021/10/30 12:49:56;;;;;;;19.87;17.80;;;10.30;99.90;;;;;;4955949;29;20455;-72
2021/10/30 12:52:23;;;;;;;19.60;17.70;;;10.40;99.90;;;;;;4955592;29;20487;-72
2021/10/30 12:54:54;;;;;;;17.43;15.83;;;10.40;99.90;;;;;;4955951;29;20466;-72
2021/10/30 12:57:24;;;;;;;17.93;16.13;;;10.50;99.90;;;;;;4955680;29;20943;-72
2021/10/30 13:00:01;;;;;;;21.47;19.17;;;10.50;99.90;;;;;;4955866;29;20466;-73
2021/10/30 13:02:28;;;;;;;20.40;18.20;;;10.60;99.90;;;;;;4955363;29;20529;-72
2021/10/30 13:04:56;;;;;;;19.93;18.00;;;10.70;99.90;;;;;;4955611;29;20459;-72
2021/10/30 13:07:23;;;;;;;20.10;18.10;;;10.70;99.90;;;;;;4956136;29;20486;-72
2021/10/30 13:09:57;;;;;;;22.40;18.50;;;10.70;99.90;;;;;;4955649;29;20471;-72
2021/10/30 13:12:26;;;;;;;20.00;18.00;;;10.70;99.90;;;;;;4955669;29;20561;-72
2021/10/30 13:14:53;;;;;;;22.07;19.77;;;10.80;99.90;;;;;;4955779;29;20459;-72
2021/10/30 13:17:20;;;;;;;23.43;21.03;;;10.70;99.90;;;;;;4954875;29;20460;-72
2021/10/30 13:19:47;;;;;;;21.70;19.40;;;10.70;99.90;;;;;;4955468;29;20463;-72
2021/10/30 13:22:14;;;;;;;19.97;18.07;;;10.80;99.90;;;;;;4955601;29;20506;-72
2021/10/30 13:24:41;;;;;;;21.83;19.63;;;10.80;99.90;;;;;;4958425;29;20452;-72
2021/10/30 13:27:08;;;;;;;21.70;19.50;;;10.80;99.90;;;;;;4955498;29;20451;-72
2021/10/30 13:29:36;;;;;;;22.03;19.67;;;10.80;99.90;;;;;;4955214;29;20814;-72
2021/10/30 13:32:03;;;;;;;22.23;20.07;;;10.80;99.90;;;;;;4955665;29;20478;-71
2021/10/30 13:34:31;;;;;;;22.83;19.83;;;10.80;99.90;;;;;;4955431;29;20527;-72
2021/10/30 13:36:58;;;;;;;23.47;20.97;;;10.80;99.90;;;;;;4955487;29;20439;-73
2021/10/30 13:39:25;;;;;;;24.73;22.13;;;10.80;99.90;;;;;;4955450;29;20451;-73
2021/10/30 13:41:51;;;;;;;23.50;21.10;;;10.80;99.90;;;;;;4954922;29;20475;-73
2021/10/30 13:44:19;;;;;;;21.57;19.47;;;10.80;99.90;;;;;;4955187;29;20483;-72
2021/10/30 13:46:47;;;;;;;23.03;18.90;;;10.80;99.90;;;;;;4955515;29;20455;-73
2021/10/30 13:49:14;;;;;;;26.57;21.37;;;10.90;99.90;;;;;;4954925;29;20942;-73
2021/10/30 13:51:41;;;;;;;21.37;19.27;;;10.80;99.90;;;;;;4955562;29;20479;-73
2021/10/30 13:54:08;;;;;;;21.87;19.67;;;10.80;99.90;;;;;;4959752;29;20451;-72
2021/10/30 13:56:35;;;;;;;23.23;20.40;;;10.80;99.90;;;;;;4955608;29;20865;-72
2021/10/30 13:59:03;;;;;;;22.33;20.17;;;10.80;99.90;;;;;;4955322;29;20443;-72
2021/10/30 14:01:29;;;;;;;20.70;18.63;;;10.80;99.90;;;;;;4954970;29;20494;-72
2021/10/30 14:03:57;;;;;;;22.50;20.10;;;10.70;99.90;;;;;;4955158;29;20897;-72
2021/10/30 14:06:24;;;;;;;23.90;20.57;;;10.70;99.90;;;;;;4955522;29;20475;-72
2021/10/30 14:08:51;;;;;;;22.80;20.40;;;10.70;99.90;;;;;;4964558;29;20479;-72
2021/10/30 14:11:18;;;;;;;25.53;20.80;;;10.70;99.90;;;;;;4955908;29;20479;-72
2021/10/30 14:13:45;;;;;;;21.57;19.37;;;10.60;99.90;;;;;;4955339;29;20458;-72
2021/10/30 14:16:12;;;;;;;23.13;20.13;;;10.60;99.90;;;;;;4955030;29;20463;-72
2021/10/30 14:18:41;;;;;;;24.33;21.43;;;10.60;99.90;;;;;;4955037;29;20462;-72
2021/10/30 14:21:09;;;;;;;22.57;19.30;;;10.60;99.90;;;;;;4954989;29;20911;-72
2021/10/30 14:23:37;;;;;;;22.70;20.03;;;10.60;99.90;;;;;;4955038;29;20482;-72
2021/10/30 14:26:04;;;;;;;23.80;20.47;;;10.50;99.90;;;;;;4954689;29;20504;-72
2021/10/30 14:28:31;;;;;;;22.30;20.10;;;10.60;99.90;;;;;;4956630;28;20554;-72
2021/10/30 14:30:59;;;;;;;22.03;19.93;;;10.60;99.90;;;;;;4958531;29;20486;-72
2021/10/30 14:33:26;;;;;;;26.20;21.47;;;10.60;99.90;;;;;;4958024;29;20462;-72
2021/10/30 14:35:53;;;;;;;25.90;22.13;;;10.60;99.90;;;;;;4958350;29;20460;-72
2021/10/30 14:38:21;;;;;;;23.50;21.30;;;10.50;99.90;;;;;;4958328;29;20455;-72
2021/10/30 14:40:49;;;;;;;23.57;21.27;;;10.60;99.90;;;;;;4957915;29;20476;-72
2021/10/30 14:43:17;;;;;;;26.53;22.43;;;10.60;99.90;;;;;;4957613;29;20486;-73
2021/10/30 14:45:44;;;;;;;26.67;21.03;;;10.50;99.90;;;;;;4957829;29;20459;-72
2021/10/30 14:48:11;;;;;;;23.03;20.70;;;10.60;99.90;;;;;;4958226;29;20460;-72
2021/10/30 14:50:38;;;;;;;24.13;21.67;;;10.60;99.90;;;;;;4957957;29;20890;-72
2021/10/30 14:53:05;;;;;;;25.30;20.83;;;10.60;99.90;;;;;;4957665;29;20459;-72
2021/10/30 14:55:33;;;;;;;25.00;22.60;;;10.70;99.90;;;;;;4957916;29;20462;-72
2021/10/30 14:58:00;;;;;;;23.60;21.30;;;10.80;99.90;;;;;;4957898;29;20514;-72
2021/10/30 15:00:27;;;;;;;24.50;21.90;;;10.80;99.90;;;;;;4957598;29;20462;-73
2021/10/30 15:02:53;;;;;;;24.47;21.93;;;10.90;99.90;;;;;;4957393;29;20939;-72
2021/10/30 15:05:21;;;;;;;23.40;20.80;;;11.00;99.90;;;;;;4957781;29;20460;-73
2021/10/30 15:07:47;;;;;;;24.47;21.60;;;10.90;99.90;;;;;;4957721;29;20816;-72
2021/10/30 15:10:15;;;;;;;23.77;21.30;;;10.90;99.90;;;;;;4957475;29;20459;-73
2021/10/30 15:12:43;;;;;;;22.77;20.40;;;10.90;99.90;;;;;;4958500;29;20511;-72
2021/10/30 15:15:11;;;;;;;24.63;22.03;;;10.80;99.90;;;;;;4958756;29;20795;-72
2021/10/30 15:17:39;;;;;;;22.37;20.17;;;10.80;99.90;;;;;;4958593;29;20486;-71
2021/10/30 15:20:09;;;;;;;23.27;21.03;;;10.70;99.90;;;;;;4958424;29;20563;-69
2021/10/30 15:22:37;;;;;;;23.23;21.07;;;10.80;99.90;;;;;;4958045;29;20479;-72
2021/10/30 15:25:04;;;;;;;24.10;21.13;;;10.80;99.90;;;;;;4958858;29;20479;-71
2021/10/30 15:27:31;;;;;;;22.63;20.33;;;10.90;99.90;;;;;;4959602;29;20462;-69
2021/10/30 15:29:59;;;;;;;19.47;17.50;;;10.90;99.90;;;;;;4957425;29;20466;-68
2021/10/30 15:32:25;;;;;;;20.07;17.70;;;11.20;99.90;;;;;;4957071;29;20966;-73
2021/10/30 15:34:53;;;;;;;21.10;19.00;;;11.20;99.90;;;;;;4956941;29;20954;-74
2021/10/30 15:37:20;;;;;;;20.73;18.70;;;11.40;99.90;;;;;;4957492;29;20463;-75
2021/10/30 15:39:47;;;;;;;19.53;17.57;;;11.40;99.90;;;;;;4956792;28;20579;-74
2021/10/30 15:42:14;;;;;;;21.80;19.50;;;11.50;99.90;;;;;;4956966;29;20483;-75
2021/10/30 15:44:41;;;;;;;21.83;19.57;;;11.40;99.90;;;;;;4957191;29;20479;-75
2021/10/30 15:47:09;;;;;;;19.90;18.10;;;11.30;99.90;;;;;;4956729;29;20911;-75
2021/10/30 15:49:36;;;;;;;22.67;19.47;;;11.30;99.90;;;;;;4957037;29;20460;-75
2021/10/30 15:52:04;;;;;;;21.57;18.87;;;11.30;99.90;;;;;;4956982;29;20484;-74
2021/10/30 15:54:31;;;;;;;19.73;17.63;;;11.20;99.90;;;;;;4957040;29;20444;-68
2021/10/30 15:56:58;;;;;;;21.90;19.43;;;11.20;99.90;;;;;;4956730;29;20459;-71
2021/10/30 15:59:24;;;;;;;20.20;18.10;;;11.20;99.90;;;;;;4956567;29;20567;-73
2021/10/30 16:01:51;;;;;;;19.50;17.60;;;11.10;99.90;;;;;;4956288;29;20874;-71
2021/10/30 16:04:19;;;;;;;18.37;16.57;;;11.00;99.90;;;;;;4956510;29;20494;-71
2021/10/30 16:06:47;;;;;;;19.40;17.50;;;11.10;99.90;;;;;;4956910;29;20966;-72
2021/10/30 16:09:15;;;;;;;20.07;17.40;;;11.10;99.90;;;;;;4957137;29;20510;-72
2021/10/30 16:11:42;;;;;;;20.40;18.30;;;11.10;99.90;;;;;;4956441;29;20528;-73
2021/10/30 16:14:10;;;;;;;20.10;18.20;;;11.20;99.90;;;;;;4956128;29;20978;-73
2021/10/30 16:16:37;;;;;;;20.10;18.07;;;11.30;99.90;;;;;;4957058;29;20947;-72
2021/10/30 16:19:03;;;;;;;20.43;18.53;;;11.30;99.90;;;;;;4956571;29;20459;-69
2021/10/30 16:21:31;;;;;;;20.43;18.43;;;11.40;99.90;;;;;;4955884;29;20482;-69
2021/10/30 16:23:58;;;;;;;19.90;18.00;;;11.50;99.90;;;;;;4956006;29;20975;-70
2021/10/30 16:26:25;;;;;;;35.30;28.30;;;11.50;99.90;;;;;;4956557;29;20455;-72
2021/10/30 16:28:52;;;;;;;44.33;35.83;;;11.50;99.90;;;;;;4956643;29;20467;-72
2021/10/30 16:31:19;;;;;;;22.23;19.90;;;11.50;99.90;;;;;;4956210;29;20480;-71
2021/10/30 16:33:46;;;;;;;17.27;15.57;;;11.40;99.90;;;;;;4956245;29;20452;-71
2021/10/30 16:36:13;;;;;;;18.13;15.57;;;11.30;99.90;;;;;;4956467;29;20461;-71
2021/10/30 16:38:41;;;;;;;19.43;16.90;;;11.20;99.90;;;;;;4955673;29;20940;-71